Home > Products > Valid Products > TAF

000
FTUS43 KIND 051842 AAB
TAFIND
TAF AMD
KIND 051842Z 0519/0624 35015KT P6SM SCT025 BKN030
     FM051930 35012G18KT P6SM SCT025 BKN040
     FM060400 34008KT P6SM SKC=



000
FTUS43 KIND 051842 AAB
TAFIND
TAF AMD
KIND 051842Z 0519/0624 35015KT P6SM SCT025 BKN030
     FM051930 35012G18KT P6SM SCT025 BKN040
     FM060400 34008KT P6SM SKC=



000
FTUS43 KIND 051825 AAA
TAFLAF
TAF AMD
KLAF 051825Z 0518/0618 36012G18KT P6SM SCT022
     FM052300 36008KT P6SM FEW040
     FM060600 VRB02KT P6SM SKC=



000
FTUS43 KIND 051825 AAA
TAFLAF
TAF AMD
KLAF 051825Z 0518/0618 36012G18KT P6SM SCT022
     FM052300 36008KT P6SM FEW040
     FM060600 VRB02KT P6SM SKC=



000
FTUS43 KIND 051720
TAFIND
TAF
KIND 051720Z 0518/0624 35015KT P6SM OVC010
     FM052100 35012G18KT P6SM SCT018 BKN040
     FM060400 34008KT P6SM SKC=



000
FTUS43 KIND 051720
TAFLAF
TAF
KLAF 051720Z 0518/0618 36014KT P6SM OVC014
     FM051900 36012G18KT P6SM SCT014 BKN040
     FM052300 36008KT P6SM FEW040
     FM060600 VRB02KT P6SM SKC=



000
FTUS43 KIND 051434 AAA
TAFLAF
TAF AMD
KLAF 051434Z 0515/0612 36013KT P6SM OVC010
     FM051530 36013G20KT P6SM BKN035
     FM051900 36012G20KT P6SM SCT040
     FM052300 36010KT P6SM SKC
     FM060300 31003KT P6SM SKC=



000
FTUS43 KIND 051434 AAA
TAFLAF
TAF AMD
KLAF 051434Z 0515/0612 36013KT P6SM OVC010
     FM051530 36013G20KT P6SM BKN035
     FM051900 36012G20KT P6SM SCT040
     FM052300 36010KT P6SM SKC
     FM060300 31003KT P6SM SKC=



000
FTUS43 KIND 051247 AAA
TAFIND
TAF AMD
KIND 051247Z 0513/0618 36010KT P6SM BKN015 OVC025
     FM051400 36012KT P6SM OVC025
     FM051630 36014G22KT P6SM BKN035
     FM052300 35012KT P6SM SCT040
     FM060300 34009KT P6SM SKC
     FM060700 33006KT P6SM SKC=



000
FTUS43 KIND 051247 AAA
TAFIND
TAF AMD
KIND 051247Z 0513/0618 36010KT P6SM BKN015 OVC025
     FM051400 36012KT P6SM OVC025
     FM051630 36014G22KT P6SM BKN035
     FM052300 35012KT P6SM SCT040
     FM060300 34009KT P6SM SKC
     FM060700 33006KT P6SM SKC=



000
FTUS43 KIND 051129
TAFLAF
TAF
KLAF 051129Z 0512/0612 35011KT P6SM BKN010 OVC020
     FM051400 36013KT P6SM OVC020
     FM051530 36013G20KT P6SM BKN035
     FM051900 36012G20KT P6SM SCT040
     FM052300 36010KT P6SM SKC
     FM060300 31003KT P6SM SKC
      AMD LTD TO CLD WIND AND VIS TIL 051300=



000
FTUS43 KIND 051129
TAFIND
TAF
KIND 051129Z 0512/0618 36010KT 5SM -DZ BR BKN015 OVC025
     FM051400 36012KT P6SM OVC025
     FM051630 36014G22KT P6SM BKN035
     FM052300 35012KT P6SM SCT040
     FM060300 34009KT P6SM SKC
     FM060700 33006KT P6SM SKC=



000
FTUS43 KIND 051129
TAFIND
TAF
KIND 051129Z 0512/0618 36010KT 5SM -DZ BR BKN015 OVC025
     FM051400 36012KT P6SM OVC025
     FM051630 36014G22KT P6SM BKN035
     FM052300 35012KT P6SM SCT040
     FM060300 34009KT P6SM SKC
     FM060700 33006KT P6SM SKC=



000
FTUS43 KIND 051129
TAFLAF
TAF
KLAF 051129Z 0512/0612 35011KT P6SM BKN010 OVC020
     FM051400 36013KT P6SM OVC020
     FM051530 36013G20KT P6SM BKN035
     FM051900 36012G20KT P6SM SCT040
     FM052300 36010KT P6SM SKC
     FM060300 31003KT P6SM SKC
      AMD LTD TO CLD WIND AND VIS TIL 051300=



000
FTUS43 KIND 050953 AAB
TAFIND
TAF AMD
KIND 050953Z 0510/0612 33010KT P6SM -RA OVC008
     FM051400 36012KT P6SM OVC020
     FM051600 36014G20KT P6SM BKN035
     FM052100 36015G22KT P6SM BKN040
     FM060100 34011G15KT P6SM SCT050
     FM060600 34006KT P6SM FEW250=



000
FTUS43 KIND 050826 AAA
TAFIND
TAF AMD
KIND 050826Z 0508/0612 33010KT P6SM -RA OVC010
     FM051400 36012KT P6SM OVC020
     FM051600 36014G20KT P6SM BKN035
     FM052100 36015G22KT P6SM BKN040
     FM060100 34011G15KT P6SM SCT050
     FM060600 34006KT P6SM FEW250=



000
FTUS43 KIND 050530
TAFIND
TAF
KIND 050530Z 0506/0612 32010KT P6SM -RA OVC020
     FM050700 32010KT P6SM VCSH OVC012
     FM051100 35010KT P6SM OVC012
     FM051400 36012KT P6SM OVC020
     FM051600 36014G20KT P6SM BKN035
     FM052100 36015G22KT P6SM BKN040
     FM060100 34011G15KT P6SM SCT050
     FM060600 34006KT P6SM FEW250=



000
FTUS43 KIND 050530
TAFLAF
TAF
KLAF 050530Z 0506/0606 33012KT P6SM VCSH BKN025 OVC045
     FM050800 33012KT P6SM VCSH OVC012
     FM051100 36011KT P6SM OVC012
     FM051400 36013KT P6SM OVC020
     FM051600 36014G20KT P6SM BKN035
     FM052100 36015G22KT P6SM BKN040
     FM060100 35009KT P6SM SCT050
     FM060400 34006KT P6SM FEW250
      AMD LTD TO CLD WIND AND VIS TIL 051300=



000
FTUS43 KIND 050530
TAFIND
TAF
KIND 050530Z 0506/0612 32010KT P6SM -RA OVC020
     FM050700 32010KT P6SM VCSH OVC012
     FM051100 35010KT P6SM OVC012
     FM051400 36012KT P6SM OVC020
     FM051600 36014G20KT P6SM BKN035
     FM052100 36015G22KT P6SM BKN040
     FM060100 34011G15KT P6SM SCT050
     FM060600 34006KT P6SM FEW250=



000
FTUS43 KIND 050530
TAFLAF
TAF
KLAF 050530Z 0506/0606 33012KT P6SM VCSH BKN025 OVC045
     FM050800 33012KT P6SM VCSH OVC012
     FM051100 36011KT P6SM OVC012
     FM051400 36013KT P6SM OVC020
     FM051600 36014G20KT P6SM BKN035
     FM052100 36015G22KT P6SM BKN040
     FM060100 35009KT P6SM SCT050
     FM060400 34006KT P6SM FEW250
      AMD LTD TO CLD WIND AND VIS TIL 051300=



000
FTUS43 KIND 050520
TAFIND
TAF
KIND 050520Z 0506/0612 32010KT P6SM VCSH OVC020
     FM050700 32010KT P6SM VCSH OVC010
     FM051100 35010KT P6SM OVC010
     FM051400 36012KT P6SM OVC020
     FM051600 36014G20KT P6SM BKN035
     FM052100 36015G22KT P6SM BKN040
     FM060100 34011G15KT P6SM SCT050=



000
FTUS43 KIND 042320
TAFIND
TAF
KIND 042320Z 0500/0606 34015G22KT P6SM BKN070
     FM050300 34014G20KT P6SM VCSH OVC070
     FM050500 32012G18KT P6SM VCSH OVC020
     FM050700 32012G17KT P6SM VCSH OVC010
     FM051100 33011G16KT P6SM OVC010
     FM051600 36014G22KT P6SM BKN035
     FM060200 34011G15KT P6SM FEW250=



000
FTUS43 KIND 042320
TAFLAF
TAF
KLAF 042320Z 0500/0524 35014G19KT P6SM BKN080
     FM050300 34012G18KT P6SM VCSH OVC070
     FM050500 33013G20KT P6SM VCSH OVC020
     FM050800 34013G20KT P6SM VCSH OVC008
     FM051100 35013G19KT P6SM OVC010
     FM051400 36013G19KT P6SM BKN035
     FM051600 36014G22KT P6SM SCT060
      AMD LTD TO CLD WIND AND VIS 0501/0513=



000
FTUS43 KIND 042320
TAFIND
TAF
KIND 042320Z 0500/0606 34015G22KT P6SM BKN070
     FM050300 34014G20KT P6SM VCSH OVC070
     FM050500 32012G18KT P6SM VCSH OVC020
     FM050700 32012G17KT P6SM VCSH OVC010
     FM051100 33011G16KT P6SM OVC010
     FM051600 36014G22KT P6SM BKN035
     FM060200 34011G15KT P6SM FEW250=



000
FTUS43 KIND 042320
TAFLAF
TAF
KLAF 042320Z 0500/0524 35014G19KT P6SM BKN080
     FM050300 34012G18KT P6SM VCSH OVC070
     FM050500 33013G20KT P6SM VCSH OVC020
     FM050800 34013G20KT P6SM VCSH OVC008
     FM051100 35013G19KT P6SM OVC010
     FM051400 36013G19KT P6SM BKN035
     FM051600 36014G22KT P6SM SCT060
      AMD LTD TO CLD WIND AND VIS 0501/0513=



000
FTUS43 KIND 042028 AAA
TAFIND
TAF AMD
KIND 042028Z 0420/0524 32020G28KT P6SM BKN035
     FM050600 33015G22KT P6SM VCSH OVC020
     FM051000 35015KT P6SM VCSH OVC008
     FM051500 36016G24KT P6SM SCT025 BKN035=



000
FTUS43 KIND 041725
TAFIND
TAF
KIND 041725Z 0418/0524 31018G26KT P6SM SCT025 BKN050
     FM042000 32020G28KT P6SM BKN035
     FM050600 33015G22KT P6SM VCSH OVC020
     FM051000 35015KT P6SM VCSH OVC008
     FM051500 36016G24KT P6SM SCT025 BKN035=



000
FTUS43 KIND 041725
TAFIND
TAF
KIND 041725Z 0418/0524 31018G26KT P6SM SCT025 BKN050
     FM042000 32020G28KT P6SM BKN035
     FM050600 33015G22KT P6SM VCSH OVC020
     FM051000 35015KT P6SM VCSH OVC008
     FM051500 36016G24KT P6SM SCT025 BKN035=



000
FTUS43 KIND 041725
TAFLAF
TAF
KLAF 041725Z 0418/0518 33018G26KT P6SM SCT025 BKN050
     FM042100 34020G28KT P6SM BKN035
     FM050400 34015G23KT P6SM VCSH OVC020
     FM050800 35014KT P6SM VCSH OVC008
     FM051400 01016G24KT P6SM SCT025 BKN035=



000
FTUS43 KIND 041725
TAFLAF
TAF
KLAF 041725Z 0418/0518 33018G26KT P6SM SCT025 BKN050
     FM042100 34020G28KT P6SM BKN035
     FM050400 34015G23KT P6SM VCSH OVC020
     FM050800 35014KT P6SM VCSH OVC008
     FM051400 01016G24KT P6SM SCT025 BKN035=



000
FTUS43 KIND 041538 AAB
TAFIND
TAF AMD
KIND 041538Z 0416/0518 31015G25KT P6SM VCSH OVC025
     FM042000 32014G24KT P6SM BKN035
     FM050500 33013G20KT P6SM BKN020=



000
FTUS43 KIND 041410 AAA
TAFLAF
TAF AMD
KLAF 041410Z 0414/0512 34014G22KT P6SM SCT015 BKN035
     FM041900 34017G27KT P6SM VCSH BKN035
     FM050000 33014G22KT P6SM BKN035
     FM050500 34012G21KT P6SM BKN020=



000
FTUS43 KIND 041410 AAA
TAFLAF
TAF AMD
KLAF 041410Z 0414/0512 34014G22KT P6SM SCT015 BKN035
     FM041900 34017G27KT P6SM VCSH BKN035
     FM050000 33014G22KT P6SM BKN035
     FM050500 34012G21KT P6SM BKN020=



000
FTUS43 KIND 041409 AAA
TAFIND
TAF AMD
KIND 041409Z 0414/0518 26015G25KT P6SM VCSH BKN015 OVC025
      TEMPO 0414/0416 5SM -SHRA BR OVC012
     FM041700 31015G25KT P6SM VCSH OVC025
     FM042000 32014G24KT P6SM BKN035
     FM050500 33013G20KT P6SM BKN020=



000
FTUS43 KIND 041133
TAFLAF
TAF
KLAF 041133Z 0412/0512 25012G20KT P6SM VCSH SCT012 BKN020 OVC030
     FM041300 32014G22KT P6SM VCSH BKN015 OVC025
     FM041900 33016G26KT P6SM BKN035
     FM050000 33014G22KT P6SM BKN035
     FM050500 34012G21KT P6SM BKN020
      AMD LTD TO CLD WIND AND VIS TIL 041300=



000
FTUS43 KIND 041133
TAFIND
TAF
KIND 041133Z 0412/0518 25015G25KT 5SM -SHRA BKN025 OVC040
     FM041400 27015G25KT 5SM -SHRA BKN015 OVC025
     FM041800 32015G25KT P6SM VCSH OVC025
     FM042000 32014G24KT P6SM BKN035
     FM050500 33013G20KT P6SM BKN020=



000
FTUS43 KIND 041133
TAFIND
TAF
KIND 041133Z 0412/0518 25015G25KT 5SM -SHRA BKN025 OVC040
     FM041400 27015G25KT 5SM -SHRA BKN015 OVC025
     FM041800 32015G25KT P6SM VCSH OVC025
     FM042000 32014G24KT P6SM BKN035
     FM050500 33013G20KT P6SM BKN020=



000
FTUS43 KIND 041133
TAFLAF
TAF
KLAF 041133Z 0412/0512 25012G20KT P6SM VCSH SCT012 BKN020 OVC030
     FM041300 32014G22KT P6SM VCSH BKN015 OVC025
     FM041900 33016G26KT P6SM BKN035
     FM050000 33014G22KT P6SM BKN035
     FM050500 34012G21KT P6SM BKN020
      AMD LTD TO CLD WIND AND VIS TIL 041300=



000
FTUS43 KIND 040530
TAFIND
TAF
KIND 040530Z 0406/0512 22007KT P6SM BKN100
     FM041200 23009KT P6SM SHRA OVC025
     FM041500 27011G16KT P6SM SHRA OVC010
     FM041800 32014G22KT P6SM VCSH OVC015
     FM042100 33014G24KT P6SM BKN035
     FM050500 32011G18KT P6SM BKN020=



000
FTUS43 KIND 040530
TAFLAF
TAF
KLAF 040530Z 0406/0506 24005KT P6SM BKN100
     FM040900 23008KT P6SM -SHRA BKN090
     FM041100 25010KT 6SM SHRA OVC025
     FM041500 30014G22KT P6SM VCSH OVC015
     FM041800 33016G26KT P6SM BKN035
     FM050000 33014G22KT P6SM BKN035
     FM050500 33012G21KT P6SM BKN020
      AMD LTD TO CLD WIND AND VIS TIL 041300=



000
FTUS43 KIND 040530
TAFLAF
TAF
KLAF 040530Z 0406/0506 24005KT P6SM BKN100
     FM040900 23008KT P6SM -SHRA BKN090
     FM041100 25010KT 6SM SHRA OVC025
     FM041500 30014G22KT P6SM VCSH OVC015
     FM041800 33016G26KT P6SM BKN035
     FM050000 33014G22KT P6SM BKN035
     FM050500 33012G21KT P6SM BKN020
      AMD LTD TO CLD WIND AND VIS TIL 041300=



000
FTUS43 KIND 040530
TAFIND
TAF
KIND 040530Z 0406/0512 22007KT P6SM BKN100
     FM041200 23009KT P6SM SHRA OVC025
     FM041500 27011G16KT P6SM SHRA OVC010
     FM041800 32014G22KT P6SM VCSH OVC015
     FM042100 33014G24KT P6SM BKN035
     FM050500 32011G18KT P6SM BKN020=



000
FTUS43 KIND 040224 AAA
TAFIND
TAF AMD
KIND 040224Z 0402/0506 22004KT P6SM BKN100
     FM041200 23009KT P6SM SHRA OVC025
     FM041500 27011G16KT P6SM SHRA OVC010
     FM041800 32014G22KT P6SM VCSH OVC015
     FM042100 33014G24KT P6SM BKN035
     FM050500 32011G19KT P6SM BKN020=



000
FTUS43 KIND 040224 AAA
TAFIND
TAF AMD
KIND 040224Z 0402/0506 22004KT P6SM BKN100
     FM041200 23009KT P6SM SHRA OVC025
     FM041500 27011G16KT P6SM SHRA OVC010
     FM041800 32014G22KT P6SM VCSH OVC015
     FM042100 33014G24KT P6SM BKN035
     FM050500 32011G19KT P6SM BKN020=



000
FTUS43 KIND 032320
TAFLAF
TAF
KLAF 032320Z 0400/0424 26005KT P6SM BKN100
     FM040900 23008KT P6SM -SHRA BKN090
     FM041100 25010KT 6SM SHRA OVC025
     FM041500 30014G22KT P6SM VCSH OVC015
     FM041800 33016G27KT P6SM BKN035
      AMD LTD TO CLD WIND AND VIS 0401/0413=



000
FTUS43 KIND 032320
TAFLAF
TAF
KLAF 032320Z 0400/0424 26005KT P6SM BKN100
     FM040900 23008KT P6SM -SHRA BKN090
     FM041100 25010KT 6SM SHRA OVC025
     FM041500 30014G22KT P6SM VCSH OVC015
     FM041800 33016G27KT P6SM BKN035
      AMD LTD TO CLD WIND AND VIS 0401/0413=



000
FTUS43 KIND 032320
TAFIND
TAF
KIND 032320Z 0400/0506 22004KT P6SM BKN100
     FM041200 23009KT P6SM SHRA OVC025
     FM041500 27011G16KT P6SM SHRA OVC010
     FM041800 32014G22KT P6SM VCSH OVC015
     FM042100 33014G24KT P6SM BKN035
     FM050500 32011G19KT P6SM BKN020=



000
FTUS43 KIND 032320
TAFIND
TAF
KIND 032320Z 0400/0506 22004KT P6SM BKN100
     FM041200 23009KT P6SM SHRA OVC025
     FM041500 27011G16KT P6SM SHRA OVC010
     FM041800 32014G22KT P6SM VCSH OVC015
     FM042100 33014G24KT P6SM BKN035
     FM050500 32011G19KT P6SM BKN020=



000
FTUS43 KIND 032022 AAA
TAFIND
TAF AMD
KIND 032022Z 0320/0424 30008KT P6SM SCT040 BKN060
     FM040000 24007KT P6SM SCT035 BKN100
     FM041100 27015KT 5SM -SHRA OVC015=



000
FTUS43 KIND 031722
TAFLAF
TAF
KLAF 031722Z 0318/0418 33008KT P6SM BKN035
     FM040000 24006KT P6SM BKN100
     FM041000 25010KT 5SM -SHRA OVC015
     FM041500 33013KT P6SM VCSH OVC010=



000
FTUS43 KIND 031722
TAFIND
TAF
KIND 031722Z 0318/0424 34008KT P6SM BKN025 OVC050
     FM031900 31008KT P6SM SCT035 BKN050
     FM040000 24007KT P6SM SCT035 BKN100
     FM041100 27015KT 5SM -SHRA OVC015=



000
FTUS43 KIND 031722
TAFLAF
TAF
KLAF 031722Z 0318/0418 33008KT P6SM BKN035
     FM040000 24006KT P6SM BKN100
     FM041000 25010KT 5SM -SHRA OVC015
     FM041500 33013KT P6SM VCSH OVC010=



000
FTUS43 KIND 031722
TAFIND
TAF
KIND 031722Z 0318/0424 34008KT P6SM BKN025 OVC050
     FM031900 31008KT P6SM SCT035 BKN050
     FM040000 24007KT P6SM SCT035 BKN100
     FM041100 27015KT 5SM -SHRA OVC015=



000
FTUS43 KIND 031415 AAB
TAFIND
TAF AMD
KIND 031415Z 0314/0418 34008KT P6SM BKN008 OVC012
      TEMPO 0314/0316 3SM -RA BR OVC005
     FM031600 34008KT P6SM BKN020 OVC035
     FM031900 31008KT P6SM BKN035 BKN060
     FM032200 27007KT P6SM SCT035 BKN060
     FM041200 28015KT 5SM -SHRA OVC015=



000
FTUS43 KIND 031307 AAA
TAFLAF
TAF AMD
KLAF 031307Z 0313/0412 34006KT P6SM SCT015 BKN050
      TEMPO 0315/0316 BKN025
     FM031600 32006KT P6SM BKN045
     FM032200 24006KT P6SM BKN060
     FM041000 25006KT 5SM -SHRA OVC015=



000
FTUS43 KIND 031307 AAA
TAFLAF
TAF AMD
KLAF 031307Z 0313/0412 34006KT P6SM SCT015 BKN050
      TEMPO 0315/0316 BKN025
     FM031600 32006KT P6SM BKN045
     FM032200 24006KT P6SM BKN060
     FM041000 25006KT 5SM -SHRA OVC015=



000
FTUS43 KIND 031135
TAFIND
TAF
KIND 031135Z 0312/0418 33006KT 3SM BR BKN008 OVC012
      TEMPO 0312/0314 2SM -RA BR OVC006
     FM031500 34007KT P6SM BKN020 OVC035
     FM031900 31008KT P6SM BKN035 BKN060
     FM032200 27007KT P6SM SCT035 BKN060
     FM041200 28015KT 5SM -SHRA OVC015=



000
FTUS43 KIND 031135
TAFLAF
TAF
KLAF 031135Z 0312/0412 34006KT P6SM OVC015
     FM031400 34006KT P6SM BKN025 OVC040
     FM031600 32006KT P6SM BKN045
     FM032200 24006KT P6SM BKN060
     FM041000 25006KT 5SM -SHRA OVC015
      AMD LTD TO CLD VIS AND WIND TIL 031300=



000
FTUS43 KIND 030904 AAB
TAFIND
TAF AMD
KIND 030904Z 0309/0412 33006KT 3SM BR BKN008 OVC012
      TEMPO 0309/0312 2SM -RA BR OVC006
     FM031200 35006KT 4SM BR BKN005 OVC015
     FM031500 34006KT P6SM BKN020
     FM032200 27007KT P6SM SCT020 BKN060
     FM040900 24006KT P6SM VCSH OVC020=



000
FTUS43 KIND 030535
TAFIND
TAF
KIND 030535Z 0306/0412 33007KT 3SM BR BKN008 OVC012
      TEMPO 0306/0310 2SM -RA BR OVC006
     FM031000 35006KT 5SM BR BKN005 OVC015
     FM031500 34006KT P6SM BKN020
     FM032200 27007KT P6SM SCT020 BKN060
     FM040900 24006KT P6SM VCSH OVC020=



000
FTUS43 KIND 030535
TAFLAF
TAF
KLAF 030535Z 0306/0406 03007KT P6SM OVC022
     FM030800 36005KT 3SM BR BKN009 OVC015
     FM031430 34006KT P6SM BKN020
     FM032200 31006KT P6SM BKN060=



000
FTUS43 KIND 030535
TAFIND
TAF
KIND 030535Z 0306/0412 33007KT 3SM BR BKN008 OVC012
      TEMPO 0306/0310 2SM -RA BR OVC006
     FM031000 35006KT 5SM BR BKN005 OVC015
     FM031500 34006KT P6SM BKN020
     FM032200 27007KT P6SM SCT020 BKN060
     FM040900 24006KT P6SM VCSH OVC020=



000
FTUS43 KIND 030535
TAFLAF
TAF
KLAF 030535Z 0306/0406 03007KT P6SM OVC022
     FM030800 36005KT 3SM BR BKN009 OVC015
     FM031430 34006KT P6SM BKN020
     FM032200 31006KT P6SM BKN060=



000
FTUS43 KIND 030411 AAB
TAFIND
TAF AMD
KIND 030411Z 0304/0406 36006KT 3SM -DZ BR VCSH SCT006 OVC015
     FM031000 35006KT 4SM BR SCT007 OVC015
     FM031500 34006KT P6SM BKN020
     FM032000 27007KT P6SM SCT020 BKN060
     FM040000 24006KT P6SM BKN060=



000
FTUS43 KIND 030351 AAA
TAFLAF
TAF AMD
KLAF 030351Z 0304/0324 03004KT P6SM SCT025 OVC035
     FM030800 36005KT 2SM BR OVC009
     FM031400 34006KT P6SM BKN030
     FM032000 31006KT P6SM BKN060=



000
FTUS43 KIND 030221 AAA
TAFIND
TAF AMD
KIND 030221Z 0302/0406 33007KT P6SM SCT015 OVC025
     FM031000 35006KT 5SM BR SCT007 OVC015
     FM031500 34006KT P6SM BKN020
     FM032000 27007KT P6SM SCT020 BKN060
     FM040000 24006KT P6SM BKN060=



000
FTUS43 KIND 030221 AAA
TAFIND
TAF AMD
KIND 030221Z 0302/0406 33007KT P6SM SCT015 OVC025
     FM031000 35006KT 5SM BR SCT007 OVC015
     FM031500 34006KT P6SM BKN020
     FM032000 27007KT P6SM SCT020 BKN060
     FM040000 24006KT P6SM BKN060=



000
FTUS43 KIND 022325
TAFLAF
TAF
KLAF 022325Z 0300/0324 03004KT P6SM OVC016
     FM030300 36006KT 4SM BR SCT007 OVC015
     FM030800 36005KT 2SM BR OVC009
     FM031400 34006KT P6SM BKN030
     FM032000 31006KT P6SM BKN060=



000
FTUS43 KIND 022325
TAFIND
TAF
KIND 022325Z 0300/0406 30007KT P6SM OVC025
     FM030400 36008KT P6SM SCT007 OVC015
     FM031000 35006KT 5SM BR OVC009
     FM031500 34006KT P6SM BKN020
     FM032000 27007KT P6SM SCT020 BKN060
     FM040000 24006KT P6SM BKN060=



000
FTUS43 KIND 022325
TAFLAF
TAF
KLAF 022325Z 0300/0324 03004KT P6SM OVC016
     FM030300 36006KT 4SM BR SCT007 OVC015
     FM030800 36005KT 2SM BR OVC009
     FM031400 34006KT P6SM BKN030
     FM032000 31006KT P6SM BKN060=



000
FTUS43 KIND 022325
TAFIND
TAF
KIND 022325Z 0300/0406 30007KT P6SM OVC025
     FM030400 36008KT P6SM SCT007 OVC015
     FM031000 35006KT 5SM BR OVC009
     FM031500 34006KT P6SM BKN020
     FM032000 27007KT P6SM SCT020 BKN060
     FM040000 24006KT P6SM BKN060=



000
FTUS43 KIND 022027 AAA
TAFIND
TAF AMD
KIND 022027Z 0220/0324 27007KT P6SM OVC013
     FM030000 33007KT P6SM OVC020
     FM030400 36008KT 6SM BR SCT007 OVC015
     FM031500 34006KT P6SM BKN020=



    US Dept of Commerce
    National Oceanic and Atmospheric Administration
    National Weather Service
    1325 East West Highway
    Silver Spring, MD 20910
    Page Author: NWS Internet Services Team
Disclaimer
Information Quality
Credits
Glossary
Privacy Policy
Freedom of Information Act (FOIA)
About Us
Career Opportunities